createdAt,value
2022-08-27T00:00:02.930Z,0.00
2022-08-27T00:01:02.930Z,0.00
2022-08-27T00:02:03.949Z,0.00
2022-08-27T00:03:02.901Z,0.00
2022-08-27T00:04:02.911Z,0.00
2022-08-27T00:05:02.901Z,0.00
2022-08-27T00:06:02.873Z,0.00
2022-08-27T00:07:02.887Z,0.00
2022-08-27T00:08:02.913Z,0.00
2022-08-27T00:09:02.843Z,0.00
2022-08-27T00:10:02.886Z,0.00
2022-08-27T00:11:02.814Z,0.00
2022-08-27T00:12:02.818Z,0.00
2022-08-27T00:13:02.804Z,0.00
2022-08-27T00:14:02.802Z,0.00
2022-08-27T00:15:02.777Z,0.00
2022-08-27T00:16:02.832Z,0.00
2022-08-27T00:17:02.756Z,0.00
2022-08-27T00:18:02.737Z,0.00
2022-08-27T00:19:03.144Z,0.00
2022-08-27T00:20:02.723Z,0.00
2022-08-27T00:21:02.747Z,0.00
2022-08-27T00:22:02.697Z,0.00
2022-08-27T00:23:02.687Z,0.00
2022-08-27T00:24:02.677Z,0.00
2022-08-27T00:25:02.664Z,0.00
2022-08-27T00:26:02.648Z,0.00
2022-08-27T00:27:02.664Z,0.00
2022-08-27T00:28:03.670Z,0.00
2022-08-27T00:29:02.643Z,0.00
2022-08-27T00:30:02.609Z,0.00
2022-08-27T00:31:02.596Z,0.00
2022-08-27T00:32:02.687Z,0.00
2022-08-27T00:33:02.591Z,0.00
2022-08-27T00:34:02.577Z,0.00
2022-08-27T00:35:02.556Z,0.00
2022-08-27T00:36:02.532Z,0.00
2022-08-27T00:37:02.524Z,0.00
2022-08-27T00:38:02.544Z,0.00
2022-08-27T00:39:02.524Z,0.00
2022-08-27T00:40:02.685Z,0.00
2022-08-27T00:41:02.492Z,0.00
2022-08-27T00:42:02.473Z,0.00
2022-08-27T00:43:02.468Z,0.00
2022-08-27T00:44:02.487Z,0.00
2022-08-27T00:45:02.444Z,0.00
2022-08-27T00:46:02.560Z,0.00
2022-08-27T00:47:02.425Z,0.00
2022-08-27T00:48:02.424Z,0.00
2022-08-27T00:49:02.408Z,0.00
2022-08-27T00:50:02.396Z,0.00
2022-08-27T00:51:02.421Z,0.00
2022-08-27T00:52:02.376Z,0.00
2022-08-27T00:53:02.390Z,0.00
2022-08-27T00:54:02.350Z,0.00
2022-08-27T00:55:02.385Z,0.00
2022-08-27T00:56:02.348Z,0.00
2022-08-27T00:57:02.328Z,0.00
2022-08-27T00:58:02.284Z,0.00
2022-08-27T00:59:02.289Z,0.00
2022-08-27T01:00:02.276Z,0.00
2022-08-27T01:01:02.316Z,0.00
2022-08-27T01:02:02.341Z,0.00
2022-08-27T01:03:02.251Z,0.00
2022-08-27T01:04:02.261Z,0.00
2022-08-27T01:05:02.231Z,0.00
2022-08-27T01:06:02.219Z,0.00
2022-08-27T01:07:02.199Z,0.00
2022-08-27T01:08:02.211Z,0.00
2022-08-27T01:09:02.172Z,0.00
2022-08-27T01:10:02.192Z,0.00
2022-08-27T01:11:02.163Z,0.00
2022-08-27T01:12:02.143Z,0.00
2022-08-27T01:13:02.132Z,0.00
2022-08-27T01:14:02.147Z,0.00
2022-08-27T01:15:02.138Z,0.00
2022-08-27T01:16:02.172Z,0.00
2022-08-27T01:17:02.124Z,0.00
2022-08-27T01:18:02.078Z,0.00
2022-08-27T01:19:02.090Z,0.00
2022-08-27T01:20:02.089Z,0.00
2022-08-27T01:21:02.045Z,0.00
2022-08-27T01:22:02.037Z,0.00
2022-08-27T01:23:02.050Z,0.00
2022-08-27T01:24:02.004Z,0.00
2022-08-27T01:25:02.025Z,0.00
2022-08-27T01:26:01.987Z,0.00
2022-08-27T01:27:01.977Z,0.00
2022-08-27T01:28:01.999Z,0.00
2022-08-27T01:29:01.958Z,0.00
2022-08-27T01:30:01.943Z,0.00
2022-08-27T01:31:01.928Z,0.00
2022-08-27T01:32:01.919Z,0.00
2022-08-27T01:33:01.921Z,0.00
2022-08-27T01:34:01.942Z,0.00
2022-08-27T01:35:01.903Z,0.00
2022-08-27T01:36:02.823Z,0.00
2022-08-27T01:37:01.878Z,0.00
2022-08-27T01:38:02.845Z,0.00
2022-08-27T01:39:01.852Z,0.00
2022-08-27T01:40:01.925Z,0.00
2022-08-27T01:41:01.834Z,0.00
2022-08-27T01:42:01.817Z,0.00
2022-08-27T01:43:01.795Z,0.00
2022-08-27T01:44:01.820Z,0.00
2022-08-27T01:45:01.784Z,0.00
2022-08-27T01:46:01.806Z,0.00
2022-08-27T01:47:01.822Z,0.00
2022-08-27T01:48:01.743Z,0.00
2022-08-27T01:49:01.736Z,0.00
2022-08-27T01:50:01.748Z,0.00
2022-08-27T01:51:01.817Z,0.00
2022-08-27T01:52:01.720Z,0.00
2022-08-27T01:53:01.699Z,0.00
2022-08-27T01:54:01.683Z,0.00
2022-08-27T01:55:01.687Z,0.00
2022-08-27T01:56:01.695Z,0.00
2022-08-27T01:57:01.658Z,0.00
2022-08-27T01:58:01.656Z,0.00
2022-08-27T01:59:01.628Z,0.00
2022-08-27T02:00:01.629Z,0.00
2022-08-27T02:01:01.669Z,0.00
2022-08-27T02:02:01.664Z,0.00
2022-08-27T02:03:01.593Z,0.00
2022-08-27T02:04:01.575Z,0.00
2022-08-27T02:05:01.564Z,0.00
2022-08-27T02:06:01.581Z,0.00
2022-08-27T02:07:01.580Z,0.00
2022-08-27T02:08:01.541Z,0.00
2022-08-27T02:09:01.519Z,0.00
2022-08-27T02:10:01.500Z,0.00
2022-08-27T02:11:01.507Z,0.00
2022-08-27T02:12:01.494Z,0.00
2022-08-27T02:13:01.485Z,0.00
2022-08-27T02:14:01.462Z,0.00
2022-08-27T02:15:02.464Z,0.00
2022-08-27T02:16:01.490Z,0.00
2022-08-27T02:17:01.435Z,0.00
2022-08-27T02:18:01.423Z,0.00
2022-08-27T02:19:01.465Z,0.00
2022-08-27T02:20:01.420Z,0.00
2022-08-27T02:21:01.415Z,0.00
2022-08-27T02:22:01.388Z,0.00
2022-08-27T02:23:01.369Z,0.00
2022-08-27T02:24:01.357Z,0.00
2022-08-27T02:25:01.368Z,0.00
2022-08-27T02:26:01.332Z,0.00
2022-08-27T02:27:01.324Z,0.00
2022-08-27T02:28:01.329Z,0.00
2022-08-27T02:29:01.312Z,0.00
2022-08-27T02:30:01.308Z,0.00
2022-08-27T02:31:01.391Z,0.00
2022-08-27T02:32:01.271Z,0.00
2022-08-27T02:33:01.259Z,0.00
2022-08-27T02:34:01.288Z,0.00
2022-08-27T02:35:01.234Z,0.00
2022-08-27T02:36:01.245Z,0.00
2022-08-27T02:37:01.214Z,0.00
2022-08-27T02:38:01.201Z,0.00
2022-08-27T02:39:01.180Z,0.00
2022-08-27T02:40:01.239Z,0.00
2022-08-27T02:41:01.191Z,0.00
2022-08-27T02:42:01.161Z,0.00
2022-08-27T02:43:01.172Z,0.00
2022-08-27T02:44:01.421Z,0.00
2022-08-27T02:45:01.122Z,0.00
2022-08-27T02:46:01.136Z,0.00
2022-08-27T02:47:01.102Z,0.00
2022-08-27T02:48:01.115Z,0.00
2022-08-27T02:49:01.083Z,0.00
2022-08-27T02:50:01.094Z,0.00
2022-08-27T02:51:01.073Z,0.00
2022-08-27T02:52:01.053Z,0.00
2022-08-27T02:53:01.025Z,0.00
2022-08-27T02:54:01.024Z,0.00
2022-08-27T02:55:01.027Z,0.00
2022-08-27T02:56:01.032Z,0.00
2022-08-27T02:57:00.995Z,0.00
2022-08-27T02:58:00.994Z,0.00
2022-08-27T02:59:01.014Z,0.00
2022-08-27T03:00:00.963Z,0.00
2022-08-27T03:01:00.947Z,0.00
2022-08-27T03:02:01.152Z,0.00
2022-08-27T03:03:01.000Z,0.00
2022-08-27T03:04:00.911Z,0.00
2022-08-27T03:05:00.938Z,0.00
2022-08-27T03:06:00.889Z,0.00
2022-08-27T03:07:00.900Z,0.00
2022-08-27T03:08:00.880Z,0.00
2022-08-27T03:09:00.865Z,0.00
2022-08-27T03:10:00.862Z,0.00
2022-08-27T03:11:00.877Z,0.00
2022-08-27T03:12:00.840Z,0.00
2022-08-27T03:13:00.822Z,0.00
2022-08-27T03:14:00.801Z,0.00
2022-08-27T03:15:00.793Z,0.00
2022-08-27T03:16:00.848Z,0.00
2022-08-27T03:17:00.789Z,0.00
2022-08-27T03:18:00.787Z,0.00
2022-08-27T03:19:00.757Z,0.00
2022-08-27T03:20:00.744Z,0.00
2022-08-27T03:21:00.719Z,0.00
2022-08-27T03:22:00.746Z,0.00
2022-08-27T03:23:00.739Z,0.00
2022-08-27T03:24:00.705Z,0.00
2022-08-27T03:25:01.716Z,0.00
2022-08-27T03:26:00.690Z,0.00
2022-08-27T03:27:00.677Z,0.00
2022-08-27T03:28:00.651Z,0.00
2022-08-27T03:29:00.715Z,0.00
2022-08-27T03:30:03.682Z,0.00
2022-08-27T03:31:00.705Z,0.00
2022-08-27T03:32:00.616Z,0.00
2022-08-27T03:33:00.597Z,0.00
2022-08-27T03:34:00.578Z,0.00
2022-08-27T03:35:00.568Z,0.00
2022-08-27T03:36:00.606Z,0.00
2022-08-27T03:37:00.559Z,0.00
2022-08-27T03:38:00.560Z,0.00
2022-08-27T03:39:00.522Z,0.00
2022-08-27T03:40:00.577Z,0.00
2022-08-27T03:41:00.504Z,0.00
2022-08-27T03:42:00.524Z,0.00
2022-08-27T03:43:00.490Z,0.00
2022-08-27T03:44:00.520Z,0.00
2022-08-27T03:45:00.464Z,0.00
2022-08-27T03:46:02.343Z,0.00
2022-08-27T03:47:00.450Z,0.00
2022-08-27T03:48:00.458Z,0.00
2022-08-27T03:49:00.465Z,0.00
2022-08-27T03:50:00.424Z,0.00
2022-08-27T03:51:00.393Z,0.00
2022-08-27T03:52:00.423Z,0.00
2022-08-27T03:53:00.376Z,0.00
2022-08-27T03:54:00.385Z,0.00
2022-08-27T03:55:00.363Z,0.00
2022-08-27T03:56:00.352Z,0.00
2022-08-27T03:57:00.342Z,0.00
2022-08-27T03:58:00.351Z,0.00
2022-08-27T03:59:00.307Z,0.00
2022-08-27T04:00:00.342Z,0.00
2022-08-27T04:01:00.287Z,0.00
2022-08-27T04:02:00.345Z,0.00
2022-08-27T04:03:00.329Z,0.00
2022-08-27T04:04:00.259Z,0.00
2022-08-27T04:05:00.269Z,0.00
2022-08-27T04:06:00.258Z,0.00
2022-08-27T04:07:00.230Z,0.00
2022-08-27T04:08:00.214Z,0.00
2022-08-27T04:09:00.191Z,0.00
2022-08-27T04:10:00.232Z,0.00
2022-08-27T04:11:00.168Z,0.00
2022-08-27T04:12:00.187Z,0.00
2022-08-27T04:13:00.182Z,0.00
2022-08-27T04:14:00.145Z,0.00
2022-08-27T04:15:00.133Z,0.00
2022-08-27T04:16:00.206Z,0.00
2022-08-27T04:17:00.146Z,0.00
2022-08-27T04:18:00.091Z,0.00
2022-08-27T04:19:00.431Z,0.00
2022-08-27T04:20:08.709Z,0.00
2022-08-27T04:21:01.121Z,0.00
2022-08-27T04:22:00.075Z,4.00
2022-08-27T04:23:00.039Z,4.00
2022-08-27T04:24:00.044Z,4.00
2022-08-27T04:25:00.019Z,0.00
2022-08-27T04:26:00.024Z,4.00
2022-08-27T04:27:00.094Z,4.00
2022-08-27T04:28:00.010Z,4.00
2022-08-27T04:28:59.976Z,4.00
2022-08-27T04:29:59.967Z,8.00
2022-08-27T04:30:59.970Z,8.00
2022-08-27T04:31:59.957Z,8.00
2022-08-27T04:32:59.991Z,4.00
2022-08-27T04:33:59.978Z,8.00
2022-08-27T04:34:59.911Z,8.00
2022-08-27T04:35:59.917Z,8.00
2022-08-27T04:36:59.896Z,8.00
2022-08-27T04:37:59.889Z,8.00
2022-08-27T04:38:59.911Z,12.00
2022-08-27T04:39:59.895Z,8.00
2022-08-27T04:40:59.844Z,12.00
2022-08-27T04:41:59.844Z,12.00
2022-08-27T04:42:59.820Z,16.00
2022-08-27T04:43:59.814Z,16.00
2022-08-27T04:44:59.819Z,20.00
2022-08-27T04:45:59.829Z,20.00
2022-08-27T04:46:59.802Z,20.00
2022-08-27T04:47:59.762Z,24.00
2022-08-27T04:48:59.753Z,28.00
2022-08-27T04:49:59.750Z,28.00
2022-08-27T04:50:59.734Z,28.00
2022-08-27T04:51:59.763Z,32.00
2022-08-27T04:52:59.768Z,36.00
2022-08-27T04:54:01.092Z,36.00
2022-08-27T04:54:59.687Z,40.00
2022-08-27T04:55:59.691Z,40.00
2022-08-27T04:56:59.696Z,44.00
2022-08-27T04:57:59.667Z,44.00
2022-08-27T04:58:59.646Z,48.00
2022-08-27T04:59:59.635Z,56.00
2022-08-27T05:00:59.636Z,64.00
2022-08-27T05:01:59.715Z,68.00
2022-08-27T05:02:59.635Z,72.00
2022-08-27T05:03:59.627Z,80.00
2022-08-27T05:04:59.629Z,84.00
2022-08-27T05:05:59.588Z,88.00
2022-08-27T05:06:59.558Z,92.00
2022-08-27T05:07:59.575Z,100.00
2022-08-27T05:08:59.540Z,100.00
2022-08-27T05:09:59.569Z,112.00
2022-08-27T05:10:59.529Z,124.00
2022-08-27T05:11:59.520Z,132.00
2022-08-27T05:13:00.137Z,136.00
2022-08-27T05:13:59.495Z,140.00
2022-08-27T05:14:59.471Z,144.00
2022-08-27T05:15:59.547Z,136.00
2022-08-27T05:16:59.453Z,136.00
2022-08-27T05:17:59.493Z,128.00
2022-08-27T05:18:59.444Z,132.00
2022-08-27T05:19:59.451Z,140.00
2022-08-27T05:20:59.432Z,140.00
2022-08-27T05:21:59.432Z,148.00
2022-08-27T05:22:59.385Z,156.00
2022-08-27T05:23:59.382Z,160.00
2022-08-27T05:24:59.368Z,160.00
2022-08-27T05:25:59.354Z,180.00
2022-08-27T05:26:59.366Z,192.00
2022-08-27T05:27:59.363Z,192.00
2022-08-27T05:28:59.320Z,196.00
2022-08-27T05:29:59.306Z,208.00
2022-08-27T05:30:59.362Z,220.00
2022-08-27T05:31:59.326Z,228.00
2022-08-27T05:32:59.288Z,224.00
2022-08-27T05:33:59.291Z,224.00
2022-08-27T05:34:59.261Z,220.00
2022-08-27T05:35:59.248Z,216.00
2022-08-27T05:36:59.260Z,220.00
2022-08-27T05:37:59.228Z,236.00
2022-08-27T05:38:59.241Z,252.00
2022-08-27T05:39:59.260Z,264.00
2022-08-27T05:40:59.191Z,284.00
2022-08-27T05:41:59.208Z,296.00
2022-08-27T05:42:59.178Z,304.00
2022-08-27T05:43:59.178Z,308.00
2022-08-27T05:44:59.142Z,316.00
2022-08-27T05:45:59.164Z,344.00
2022-08-27T05:46:59.142Z,384.00
2022-08-27T05:47:59.162Z,440.00
2022-08-27T05:48:59.092Z,488.00
2022-08-27T05:49:59.091Z,496.00
2022-08-27T05:50:59.083Z,520.00
2022-08-27T05:51:59.088Z,556.00
2022-08-27T05:52:59.062Z,560.00
2022-08-27T05:53:59.076Z,600.00
2022-08-27T05:54:59.036Z,628.00
2022-08-27T05:55:59.039Z,636.00
2022-08-27T05:56:59.034Z,616.00
2022-08-27T05:57:59.005Z,612.00
2022-08-27T05:58:58.999Z,624.00
2022-08-27T05:59:59.018Z,652.00
2022-08-27T06:01:02.958Z,684.00
2022-08-27T06:01:59.967Z,684.00
2022-08-27T06:02:58.985Z,668.00
2022-08-27T06:03:58.933Z,672.00
2022-08-27T06:04:59.001Z,672.00
2022-08-27T06:05:58.920Z,676.00
2022-08-27T06:06:58.899Z,684.00
2022-08-27T06:07:58.893Z,680.00
2022-08-27T06:08:58.890Z,672.00
2022-08-27T06:09:58.886Z,664.00
2022-08-27T06:10:58.968Z,668.00
2022-08-27T06:11:58.851Z,664.00
2022-08-27T06:12:58.839Z,656.00
2022-08-27T06:13:58.816Z,632.00
2022-08-27T06:14:58.799Z,640.00
2022-08-27T06:15:58.850Z,656.00
2022-08-27T06:16:58.809Z,688.00
2022-08-27T06:17:58.790Z,712.00
2022-08-27T06:18:58.792Z,732.00
2022-08-27T06:19:58.747Z,752.00
2022-08-27T06:20:58.781Z,772.00
2022-08-27T06:22:01.150Z,788.00
2022-08-27T06:22:59.746Z,808.00
2022-08-27T06:23:58.714Z,800.00
2022-08-27T06:24:58.703Z,808.00
2022-08-27T06:25:58.699Z,824.00
2022-08-27T06:26:58.724Z,868.00
2022-08-27T06:27:58.685Z,904.00
2022-08-27T06:28:58.675Z,928.00
2022-08-27T06:29:58.684Z,948.00
2022-08-27T06:30:58.667Z,964.00
2022-08-27T06:31:58.638Z,976.00
2022-08-27T06:32:58.623Z,1000.00
2022-08-27T06:33:58.628Z,1024.00
2022-08-27T06:34:58.609Z,1060.00
2022-08-27T06:35:58.638Z,1084.00
2022-08-27T06:36:58.577Z,1092.00
2022-08-27T06:37:58.573Z,1100.00
2022-08-27T06:38:58.552Z,1100.00
2022-08-27T06:39:58.618Z,1084.00
2022-08-27T06:40:58.647Z,1076.00
2022-08-27T06:41:58.518Z,1076.00
2022-08-27T06:42:58.529Z,1036.00
2022-08-27T06:43:58.640Z,984.00
2022-08-27T06:44:58.560Z,956.00
2022-08-27T06:45:58.513Z,888.00
2022-08-27T06:46:58.500Z,916.00
2022-08-27T06:47:58.461Z,996.00
2022-08-27T06:48:58.449Z,1096.00
2022-08-27T06:49:58.483Z,1180.00
2022-08-27T06:50:59.372Z,1172.00
2022-08-27T06:51:58.446Z,1156.00
2022-08-27T06:52:58.413Z,1148.00
2022-08-27T06:53:58.392Z,1044.00
2022-08-27T06:54:58.406Z,1024.00
2022-08-27T06:55:58.374Z,1064.00
2022-08-27T06:56:58.364Z,1108.00
2022-08-27T06:57:58.385Z,1132.00
2022-08-27T06:58:59.287Z,1120.00
2022-08-27T06:59:58.323Z,1124.00
2022-08-27T07:00:58.324Z,1096.00
2022-08-27T07:01:58.383Z,1172.00
2022-08-27T07:02:58.313Z,1284.00
2022-08-27T07:03:58.289Z,1436.00
2022-08-27T07:04:58.300Z,1496.00
2022-08-27T07:05:58.396Z,1476.00
2022-08-27T07:06:58.250Z,1552.00
2022-08-27T07:07:58.269Z,1588.00
2022-08-27T07:08:58.267Z,1516.00
2022-08-27T07:09:58.215Z,1432.00
2022-08-27T07:10:58.217Z,1320.00
2022-08-27T07:11:58.182Z,1316.00
2022-08-27T07:21:19.307Z,1732.00
2022-08-27T07:22:10.465Z,1764.00
2022-08-27T07:23:11.180Z,1848.00
2022-08-27T07:24:10.422Z,1868.00
2022-08-27T07:25:10.420Z,1904.00
2022-08-27T07:26:10.411Z,1968.00
2022-08-27T07:27:12.912Z,1860.00
2022-08-27T07:28:10.586Z,1800.00
2022-08-27T07:29:10.387Z,1776.00
2022-08-27T07:30:10.393Z,1820.00
2022-08-27T07:31:10.420Z,1840.00
2022-08-27T07:32:10.345Z,1812.00
2022-08-27T07:33:10.362Z,1724.00
2022-08-27T07:34:10.352Z,1708.00
2022-08-27T07:35:11.282Z,1820.00
2022-08-27T07:36:10.314Z,1916.00
2022-08-27T07:37:10.292Z,1920.00
2022-08-27T07:38:10.424Z,2004.00
2022-08-27T07:39:10.307Z,2032.00
2022-08-27T07:40:10.267Z,2124.00
2022-08-27T07:41:10.245Z,2132.00
2022-08-27T07:42:10.226Z,2168.00
2022-08-27T07:43:10.217Z,2212.00
2022-08-27T07:44:10.228Z,2188.00
2022-08-27T07:45:10.237Z,2112.00
2022-08-27T07:46:10.243Z,2100.00
2022-08-27T07:47:10.174Z,2040.00
2022-08-27T07:48:10.285Z,1876.00
2022-08-27T07:49:10.167Z,1808.00
2022-08-27T07:50:10.143Z,1940.00
2022-08-27T07:51:10.188Z,2028.00
2022-08-27T07:52:10.123Z,2152.00
2022-08-27T07:53:10.109Z,2272.00
2022-08-27T07:54:10.093Z,2372.00
2022-08-27T07:55:10.090Z,2368.00
2022-08-27T07:56:10.090Z,2244.00
2022-08-27T07:57:10.113Z,2112.00
2022-08-27T07:58:11.042Z,2156.00
2022-08-27T07:59:10.048Z,2284.00
2022-08-27T08:00:10.030Z,2488.00
2022-08-27T08:01:10.098Z,2656.00
2022-08-27T08:02:10.063Z,2700.00
2022-08-27T08:03:10.009Z,2696.00
2022-08-27T08:04:10.028Z,2740.00
2022-08-27T08:05:09.971Z,2816.00
2022-08-27T08:06:09.962Z,2896.00
2022-08-27T08:07:09.984Z,3036.00
2022-08-27T08:08:10.090Z,3044.00
2022-08-27T08:09:10.679Z,2896.00
2022-08-27T08:10:09.929Z,2880.00
2022-08-27T08:11:09.902Z,2908.00
2022-08-27T08:12:09.916Z,2804.00
2022-08-27T08:13:09.939Z,2752.00
2022-08-27T08:14:09.877Z,2524.00
2022-08-27T08:15:09.876Z,2352.00
2022-08-27T08:16:09.846Z,2380.00
2022-08-27T08:17:10.341Z,2576.00
2022-08-27T08:18:09.936Z,2720.00
2022-08-27T08:19:09.847Z,2776.00
2022-08-27T08:20:21.839Z,2740.00
2022-08-27T08:21:10.789Z,2788.00
2022-08-27T08:22:09.789Z,2876.00
2022-08-27T08:23:10.765Z,2984.00
2022-08-27T08:24:09.770Z,3104.00
2022-08-27T08:25:10.604Z,3192.00
2022-08-27T08:26:09.827Z,3168.00
2022-08-27T08:27:09.751Z,3040.00
2022-08-27T08:28:09.966Z,2940.00
2022-08-27T08:29:09.718Z,2920.00
2022-08-27T08:30:10.687Z,3032.00
2022-08-27T08:31:09.721Z,3172.00
2022-08-27T08:32:09.690Z,3316.00
2022-08-27T08:33:09.682Z,3452.00
2022-08-27T08:34:09.683Z,3508.00
2022-08-27T08:35:09.653Z,3512.00
2022-08-27T08:36:09.645Z,3508.00
2022-08-27T08:37:09.635Z,3524.00
2022-08-27T08:38:09.711Z,3560.00
2022-08-27T08:39:09.587Z,3628.00
2022-08-27T08:40:09.646Z,3676.00
2022-08-27T08:41:09.566Z,3708.00
2022-08-27T08:42:09.558Z,3748.00
2022-08-27T08:43:09.575Z,3768.00
2022-08-27T08:44:09.556Z,3768.00
2022-08-27T08:45:09.536Z,3628.00
2022-08-27T08:46:09.564Z,3500.00
2022-08-27T08:47:09.508Z,3420.00
2022-08-27T08:48:09.717Z,3488.00
2022-08-27T08:49:09.478Z,3516.00
2022-08-27T08:50:09.500Z,3596.00
2022-08-27T08:51:09.458Z,3648.00
2022-08-27T08:52:09.447Z,3716.00
2022-08-27T08:53:09.440Z,3724.00
2022-08-27T08:54:09.420Z,3696.00
2022-08-27T08:55:09.419Z,3684.00
2022-08-27T08:56:09.455Z,3664.00
2022-08-27T08:57:09.386Z,3636.00
2022-08-27T08:58:09.625Z,3620.00
2022-08-27T08:59:09.373Z,3624.00
2022-08-27T09:00:09.353Z,3616.00
2022-08-27T09:01:09.396Z,3624.00
2022-08-27T09:02:13.321Z,3656.00
2022-08-27T09:03:09.324Z,3692.00
2022-08-27T09:04:09.370Z,3736.00
2022-08-27T09:05:09.325Z,3764.00
2022-08-27T09:06:09.301Z,3764.00
2022-08-27T09:07:09.274Z,3764.00
2022-08-27T09:08:31.983Z,3776.00
2022-08-27T09:09:10.263Z,3780.00
2022-08-27T09:10:09.253Z,3772.00
2022-08-27T09:11:09.285Z,3824.00
2022-08-27T09:12:09.217Z,3920.00
2022-08-27T09:13:09.212Z,4008.00
2022-08-27T09:14:12.869Z,4040.00
2022-08-27T09:15:11.431Z,4032.00
2022-08-27T09:16:09.357Z,4036.00
2022-08-27T09:17:09.438Z,4076.00
2022-08-27T09:18:14.265Z,4120.00
2022-08-27T09:19:12.962Z,4156.00
2022-08-27T09:20:13.340Z,4172.00
2022-08-27T09:21:10.055Z,4140.00
2022-08-27T09:22:09.129Z,4148.00
2022-08-27T09:23:09.099Z,4236.00
2022-08-27T09:24:09.124Z,4320.00
2022-08-27T09:25:09.079Z,4372.00
2022-08-27T09:26:09.082Z,4364.00
2022-08-27T09:27:09.076Z,4324.00
2022-08-27T09:28:09.172Z,4320.00
2022-08-27T09:29:09.040Z,4284.00
2022-08-27T09:30:09.064Z,4256.00
2022-08-27T09:31:09.058Z,4228.00
2022-08-27T09:32:09.019Z,4264.00
2022-08-27T09:33:09.001Z,4336.00
2022-08-27T09:34:08.984Z,4372.00
2022-08-27T09:35:08.956Z,4380.00
2022-08-27T09:36:08.962Z,4368.00
2022-08-27T09:37:08.940Z,4380.00
2022-08-27T09:38:08.959Z,4400.00
2022-08-27T09:39:08.928Z,4420.00
2022-08-27T09:40:13.599Z,4468.00
2022-08-27T09:41:15.107Z,4540.00
2022-08-27T09:42:08.889Z,4568.00
2022-08-27T09:43:08.918Z,4612.00
2022-08-27T09:44:08.869Z,4616.00
2022-08-27T09:45:10.069Z,4644.00
2022-08-27T09:46:08.917Z,4684.00
2022-08-27T09:47:08.827Z,4720.00
2022-08-27T09:48:08.924Z,4768.00
2022-08-27T09:49:08.808Z,4804.00
2022-08-27T09:50:08.810Z,4828.00
2022-08-27T09:51:08.804Z,4692.00
2022-08-27T09:52:08.791Z,4456.00
2022-08-27T09:53:08.770Z,4308.00
2022-08-27T09:54:08.756Z,4360.00
2022-08-27T09:55:08.770Z,4536.00
2022-08-27T09:56:09.087Z,4788.00
2022-08-27T09:57:08.711Z,4860.00
2022-08-27T09:58:08.697Z,4832.00
2022-08-27T09:59:08.700Z,4820.00
2022-08-27T10:00:08.725Z,4792.00
2022-08-27T10:01:08.747Z,4776.00
2022-08-27T10:02:11.202Z,4752.00
2022-08-27T10:03:08.658Z,4716.00
2022-08-27T10:04:08.688Z,4720.00
2022-08-27T10:05:08.639Z,4736.00
2022-08-27T10:06:08.619Z,4796.00
2022-08-27T10:07:08.613Z,4860.00
2022-08-27T10:08:08.677Z,4892.00
2022-08-27T10:09:08.587Z,4896.00
2022-08-27T10:10:08.575Z,4864.00
2022-08-27T10:11:08.569Z,4828.00
2022-08-27T10:12:08.556Z,4788.00
2022-08-27T10:13:10.330Z,4792.00
2022-08-27T10:14:08.551Z,4848.00
2022-08-27T10:15:08.530Z,4908.00
2022-08-27T10:16:08.534Z,4936.00
2022-08-27T10:17:08.489Z,4960.00
2022-08-27T10:18:08.511Z,4956.00
2022-08-27T10:19:08.511Z,4924.00
2022-08-27T10:20:08.483Z,4884.00
2022-08-27T10:21:08.472Z,4856.00
2022-08-27T10:22:08.447Z,4848.00
2022-08-27T10:23:08.431Z,4884.00
2022-08-27T10:24:08.411Z,4964.00
2022-08-27T10:25:08.443Z,5036.00
2022-08-27T10:26:08.433Z,5072.00
2022-08-27T10:27:08.378Z,5092.00
2022-08-27T10:28:08.363Z,5064.00
2022-08-27T10:29:08.371Z,5012.00
2022-08-27T10:30:08.380Z,4952.00
2022-08-27T10:31:08.359Z,4940.00
2022-08-27T10:32:08.392Z,4956.00
2022-08-27T10:33:08.316Z,4944.00
2022-08-27T10:34:08.335Z,4888.00
2022-08-27T10:35:08.302Z,4652.00
2022-08-27T10:36:08.276Z,4496.00
2022-08-27T10:37:08.277Z,4612.00
2022-08-27T10:38:08.289Z,4888.00
2022-08-27T10:39:08.255Z,5240.00
2022-08-27T10:40:08.369Z,5456.00
2022-08-27T10:41:08.245Z,5648.00
2022-08-27T10:42:08.238Z,5772.00
2022-08-27T10:43:08.231Z,5796.00
2022-08-27T10:44:08.189Z,5776.00
2022-08-27T10:45:08.180Z,5764.00
2022-08-27T10:46:08.244Z,5780.00
2022-08-27T10:47:08.190Z,5820.00
2022-08-27T10:48:08.271Z,5856.00
2022-08-27T10:49:08.136Z,5892.00
2022-08-27T10:50:08.180Z,5864.00
2022-08-27T10:51:08.112Z,5800.00
2022-08-27T10:52:08.608Z,5660.00
2022-08-27T10:53:08.092Z,5564.00
2022-08-27T10:54:08.120Z,5580.00
2022-08-27T10:55:08.075Z,5556.00
2022-08-27T10:56:08.063Z,5428.00
2022-08-27T10:57:28.581Z,5336.00
2022-08-27T10:58:09.036Z,5368.00
2022-08-27T10:59:08.024Z,5348.00
2022-08-27T11:00:08.095Z,5388.00
2022-08-27T11:01:08.067Z,5616.00
2022-08-27T11:02:08.039Z,5888.00
2022-08-27T11:03:07.984Z,6056.00
2022-08-27T11:04:07.968Z,6128.00
2022-08-27T11:05:07.972Z,6096.00
2022-08-27T11:06:07.986Z,5996.00
2022-08-27T11:07:07.948Z,5904.00
2022-08-27T11:08:07.938Z,5852.00
2022-08-27T11:09:08.063Z,5820.00
2022-08-27T11:10:07.953Z,5768.00
2022-08-27T11:11:45.449Z,5716.00
2022-08-27T11:12:16.112Z,5692.00
2022-08-27T11:13:08.881Z,5700.00
2022-08-27T11:14:07.860Z,5580.00
2022-08-27T11:15:12.285Z,5316.00
2022-08-27T11:16:08.922Z,5060.00
2022-08-27T11:17:07.832Z,4800.00
2022-08-27T11:18:07.872Z,4540.00
2022-08-27T11:19:07.826Z,4404.00
2022-08-27T11:20:07.918Z,4448.00
2022-08-27T11:21:07.797Z,4652.00
2022-08-27T11:22:07.768Z,4972.00
2022-08-27T11:23:07.783Z,5184.00
2022-08-27T11:24:07.788Z,5260.00
2022-08-27T11:25:07.745Z,5340.00
2022-08-27T11:26:07.747Z,5472.00
2022-08-27T11:27:07.729Z,5552.00
2022-08-27T11:28:07.749Z,5596.00
2022-08-27T11:29:07.716Z,5716.00
2022-08-27T11:30:07.743Z,5948.00
2022-08-27T11:31:07.718Z,6068.00
2022-08-27T11:32:07.657Z,6084.00
2022-08-27T11:33:13.710Z,6240.00
2022-08-27T11:34:08.666Z,6268.00
2022-08-27T11:35:07.654Z,6076.00
2022-08-27T11:36:07.619Z,5808.00
2022-08-27T11:37:07.608Z,5696.00
2022-08-27T11:38:07.661Z,5520.00
2022-08-27T11:39:07.625Z,5164.00
2022-08-27T11:40:07.662Z,4720.00
2022-08-27T11:41:07.595Z,4488.00
2022-08-27T11:42:07.552Z,4528.00
2022-08-27T11:43:07.542Z,4760.00
2022-08-27T11:44:07.536Z,5052.00
2022-08-27T11:45:07.565Z,5252.00
2022-08-27T11:46:07.528Z,5288.00
2022-08-27T11:47:07.531Z,5312.00
2022-08-27T11:48:07.525Z,5432.00
2022-08-27T11:49:07.483Z,5496.00
2022-08-27T11:50:07.497Z,5620.00
2022-08-27T11:51:07.475Z,6052.00
2022-08-27T11:52:07.444Z,6496.00
2022-08-27T11:53:07.436Z,6548.00
2022-08-27T11:54:07.425Z,6164.00
2022-08-27T11:55:07.426Z,5764.00
2022-08-27T11:56:07.394Z,5640.00
2022-08-27T11:57:07.406Z,5832.00
2022-08-27T11:58:07.419Z,6036.00
2022-08-27T11:59:07.386Z,6272.00
2022-08-27T12:00:07.359Z,6524.00
2022-08-27T12:01:07.354Z,6924.00
2022-08-27T12:02:07.384Z,7260.00
2022-08-27T12:03:07.346Z,7272.00
2022-08-27T12:04:07.393Z,7120.00
2022-08-27T12:05:07.300Z,6884.00
2022-08-27T12:06:07.283Z,6804.00
2022-08-27T12:07:07.271Z,6812.00
2022-08-27T12:08:07.337Z,6968.00
2022-08-27T12:09:07.980Z,7136.00
2022-08-27T12:10:07.263Z,7172.00
2022-08-27T12:11:07.247Z,7092.00
2022-08-27T12:12:07.238Z,7000.00
2022-08-27T12:13:07.235Z,6892.00
2022-08-27T12:14:07.235Z,6676.00
2022-08-27T12:15:07.193Z,6380.00
2022-08-27T12:16:07.239Z,6160.00
2022-08-27T12:17:07.165Z,6128.00
2022-08-27T12:18:07.229Z,6356.00
2022-08-27T12:19:07.157Z,6708.00
2022-08-27T12:20:07.161Z,6972.00
2022-08-27T12:21:07.116Z,6800.00
2022-08-27T12:22:08.094Z,6456.00
2022-08-27T12:23:07.122Z,6072.00
2022-08-27T12:24:07.114Z,5816.00
2022-08-27T12:25:07.076Z,5716.00
2022-08-27T12:26:07.065Z,5684.00
2022-08-27T12:27:07.059Z,5624.00
2022-08-27T12:28:07.160Z,5408.00
2022-08-27T12:29:07.036Z,4944.00
2022-08-27T12:30:07.037Z,4580.00
2022-08-27T12:31:07.130Z,4428.00
2022-08-27T12:32:07.074Z,4572.00
2022-08-27T12:33:07.019Z,5096.00
2022-08-27T12:34:06.979Z,5780.00
2022-08-27T12:35:06.990Z,6144.00
2022-08-27T12:36:06.953Z,5980.00
2022-08-27T12:37:07.500Z,5468.00
2022-08-27T12:38:06.952Z,4972.00
2022-08-27T12:39:06.932Z,4664.00
2022-08-27T12:40:06.979Z,4412.00
2022-08-27T12:41:06.905Z,4212.00
2022-08-27T12:42:06.894Z,4064.00
2022-08-27T12:43:06.902Z,3904.00